createdAt,value
2022-11-30T00:00:58.411Z,33.00
2022-11-30T00:01:58.488Z,32.80
2022-11-30T00:02:57.520Z,31.20
2022-11-30T00:03:58.374Z,32.30
2022-11-30T00:04:57.393Z,31.60
2022-11-30T00:05:58.344Z,32.40
2022-11-30T00:06:57.372Z,33.60
2022-11-30T00:07:57.385Z,31.10
2022-11-30T00:08:57.346Z,31.20
2022-11-30T00:09:57.328Z,32.00
2022-11-30T00:10:57.311Z,31.00
2022-11-30T00:11:57.322Z,33.60
2022-11-30T00:12:57.282Z,32.80
2022-11-30T00:13:58.229Z,32.30
2022-11-30T00:14:57.256Z,32.30
2022-11-30T00:15:58.207Z,33.50
2022-11-30T00:16:58.235Z,32.90
2022-11-30T00:17:57.228Z,35.10
2022-11-30T00:18:57.218Z,36.00
2022-11-30T00:19:57.322Z,33.50
2022-11-30T00:20:57.177Z,33.60
2022-11-30T00:21:57.168Z,33.60
2022-11-30T00:22:58.111Z,32.30
2022-11-30T00:23:57.160Z,32.90
2022-11-30T00:24:57.119Z,33.10
2022-11-30T00:25:57.121Z,32.20
2022-11-30T00:26:57.099Z,33.00
2022-11-30T00:27:57.085Z,31.40
2022-11-30T00:28:58.030Z,32.40
2022-11-30T00:29:57.060Z,32.80
2022-11-30T00:30:57.075Z,32.80
2022-11-30T00:31:57.989Z,33.50
2022-11-30T00:32:57.010Z,32.90
2022-11-30T00:33:57.967Z,33.50
2022-11-30T00:34:56.991Z,32.10
2022-11-30T00:35:56.990Z,32.70
2022-11-30T00:36:56.960Z,33.30
2022-11-30T00:37:56.948Z,32.70
2022-11-30T00:38:56.949Z,32.30
2022-11-30T00:39:56.921Z,32.50
2022-11-30T00:40:56.901Z,30.70
2022-11-30T00:41:56.899Z,31.70
2022-11-30T00:42:56.882Z,31.10
2022-11-30T00:43:56.872Z,32.60
2022-11-30T00:44:56.855Z,32.60
2022-11-30T00:45:56.897Z,32.80
2022-11-30T00:46:56.822Z,32.30
2022-11-30T00:47:56.824Z,30.50
2022-11-30T00:48:56.853Z,31.10
2022-11-30T00:49:56.790Z,32.60
2022-11-30T00:50:56.768Z,30.70
2022-11-30T00:51:56.762Z,30.90
2022-11-30T00:52:56.754Z,31.10
2022-11-30T00:53:56.732Z,31.10
2022-11-30T00:54:56.711Z,31.70
2022-11-30T00:55:56.704Z,31.20
2022-11-30T00:56:56.681Z,33.10
2022-11-30T00:57:56.673Z,32.70
2022-11-30T00:58:56.661Z,32.00
2022-11-30T00:59:56.648Z,30.20
2022-11-30T01:00:56.702Z,32.60
2022-11-30T01:01:56.623Z,31.10
2022-11-30T01:02:56.608Z,31.80
2022-11-30T01:03:56.595Z,31.60
2022-11-30T01:04:56.567Z,31.70
2022-11-30T01:05:56.566Z,31.90
2022-11-30T01:06:56.548Z,31.70
2022-11-30T01:07:56.574Z,31.80
2022-11-30T01:08:56.525Z,31.80
2022-11-30T01:09:56.515Z,30.70
2022-11-30T01:10:56.495Z,30.50
2022-11-30T01:11:56.486Z,30.30
2022-11-30T01:12:56.461Z,29.90
2022-11-30T01:13:56.459Z,30.50
2022-11-30T01:14:56.457Z,31.30
2022-11-30T01:15:56.481Z,31.00
2022-11-30T01:16:56.547Z,31.10
2022-11-30T01:17:56.400Z,29.80
2022-11-30T01:18:57.349Z,32.70
2022-11-30T01:19:56.380Z,30.20
2022-11-30T01:20:56.360Z,30.00
2022-11-30T01:21:56.349Z,30.80
2022-11-30T01:22:56.327Z,31.70
2022-11-30T01:23:56.337Z,29.80
2022-11-30T01:24:56.313Z,30.10
2022-11-30T01:25:56.295Z,30.50
2022-11-30T01:26:56.270Z,32.30
2022-11-30T01:27:56.271Z,33.00
2022-11-30T01:28:56.254Z,29.60
2022-11-30T01:29:56.237Z,31.10
2022-11-30T01:30:56.269Z,31.80
2022-11-30T01:31:56.221Z,31.00
2022-11-30T01:32:56.201Z,29.30
2022-11-30T01:33:56.192Z,30.00
2022-11-30T01:34:56.167Z,29.50
2022-11-30T01:35:56.163Z,30.10
2022-11-30T01:36:56.141Z,31.80
2022-11-30T01:37:56.144Z,29.80
2022-11-30T01:38:56.128Z,31.40
2022-11-30T01:39:56.106Z,31.10
2022-11-30T01:40:56.083Z,31.50
2022-11-30T01:41:57.033Z,30.10
2022-11-30T01:42:56.062Z,30.50
2022-11-30T01:43:56.054Z,30.40
2022-11-30T01:44:56.034Z,32.90
2022-11-30T01:45:56.065Z,31.40
2022-11-30T01:46:56.005Z,30.60
2022-11-30T01:47:56.001Z,31.00
2022-11-30T01:48:57.466Z,29.80
2022-11-30T01:49:55.967Z,29.60
2022-11-30T01:50:55.945Z,30.50
2022-11-30T01:51:55.936Z,29.90
2022-11-30T01:52:55.916Z,30.10
2022-11-30T01:53:55.926Z,30.70
2022-11-30T01:54:55.895Z,30.90
2022-11-30T01:55:55.884Z,30.50
2022-11-30T01:56:55.875Z,31.60
2022-11-30T01:57:55.857Z,31.30
2022-11-30T01:58:55.849Z,31.60
2022-11-30T01:59:55.827Z,32.90
2022-11-30T02:00:55.872Z,29.90
2022-11-30T02:01:55.810Z,32.10
2022-11-30T02:02:55.841Z,30.80
2022-11-30T02:03:55.781Z,31.40
2022-11-30T02:04:55.761Z,32.40
2022-11-30T02:05:55.771Z,32.80
2022-11-30T02:06:55.741Z,31.10
2022-11-30T02:07:55.820Z,31.00
2022-11-30T02:08:55.718Z,29.50
2022-11-30T02:09:55.691Z,30.00
2022-11-30T02:10:56.642Z,30.50
2022-11-30T02:11:55.671Z,30.60
2022-11-30T02:12:55.661Z,29.70
2022-11-30T02:13:55.654Z,30.90
2022-11-30T02:14:55.629Z,30.60
2022-11-30T02:15:55.713Z,29.60
2022-11-30T02:16:55.602Z,28.80
2022-11-30T02:17:55.582Z,30.80
2022-11-30T02:18:55.592Z,29.20
2022-11-30T02:19:55.568Z,29.30
2022-11-30T02:20:55.552Z,29.90
2022-11-30T02:21:55.538Z,28.60
2022-11-30T02:22:55.514Z,29.70
2022-11-30T02:23:55.509Z,28.90
2022-11-30T02:24:55.495Z,30.30
2022-11-30T02:25:55.476Z,30.30
2022-11-30T02:26:55.466Z,30.90
2022-11-30T02:27:55.455Z,29.60
2022-11-30T02:28:55.457Z,30.10
2022-11-30T02:29:55.421Z,30.30
2022-11-30T02:30:55.417Z,29.80
2022-11-30T02:31:55.660Z,30.50
2022-11-30T02:32:55.387Z,29.70
2022-11-30T02:33:55.385Z,30.40
2022-11-30T02:34:55.357Z,30.60
2022-11-30T02:35:55.602Z,29.10
2022-11-30T02:36:55.327Z,30.40
2022-11-30T02:37:55.318Z,30.60
2022-11-30T02:38:55.336Z,29.70
2022-11-30T02:39:56.233Z,29.30
2022-11-30T02:40:55.277Z,29.20
2022-11-30T02:41:55.257Z,30.80
2022-11-30T02:42:55.251Z,29.10
2022-11-30T02:43:55.237Z,29.80
2022-11-30T02:44:55.236Z,31.20
2022-11-30T02:45:55.259Z,31.40
2022-11-30T02:46:55.204Z,29.80
2022-11-30T02:47:55.179Z,31.70
2022-11-30T02:48:55.180Z,30.60
2022-11-30T02:49:56.104Z,31.00
2022-11-30T02:50:55.141Z,29.70
2022-11-30T02:51:55.120Z,30.60
2022-11-30T02:52:55.114Z,32.40
2022-11-30T02:53:55.109Z,30.40
2022-11-30T02:54:55.090Z,32.30
2022-11-30T02:55:55.069Z,32.40
2022-11-30T02:56:55.069Z,33.20
2022-11-30T02:57:55.042Z,33.30
2022-11-30T02:58:55.050Z,34.00
2022-11-30T02:59:55.021Z,33.50
2022-11-30T03:00:55.001Z,35.40
2022-11-30T03:01:55.008Z,34.60
2022-11-30T03:02:55.023Z,34.90
2022-11-30T03:03:54.974Z,33.00
2022-11-30T03:04:55.897Z,33.10
2022-11-30T03:05:54.931Z,33.70
2022-11-30T03:06:54.932Z,34.70
2022-11-30T03:07:54.999Z,34.50
2022-11-30T03:08:54.912Z,34.70
2022-11-30T03:09:54.885Z,34.20
2022-11-30T03:10:54.870Z,34.00
2022-11-30T03:11:54.855Z,35.00
2022-11-30T03:12:54.855Z,34.90
2022-11-30T03:13:54.841Z,35.20
2022-11-30T03:14:54.821Z,34.70
2022-11-30T03:15:54.819Z,35.70
2022-11-30T03:16:54.792Z,36.20
2022-11-30T03:17:54.775Z,35.10
2022-11-30T03:18:54.777Z,34.80
2022-11-30T03:19:55.691Z,35.10
2022-11-30T03:20:54.744Z,34.30
2022-11-30T03:21:54.716Z,35.60
2022-11-30T03:22:54.702Z,36.30
2022-11-30T03:23:55.653Z,33.80
2022-11-30T03:24:55.633Z,35.00
2022-11-30T03:25:54.668Z,35.10
2022-11-30T03:26:54.658Z,35.90
2022-11-30T03:27:54.633Z,35.40
2022-11-30T03:28:54.637Z,33.20
2022-11-30T03:29:55.552Z,34.50
2022-11-30T03:30:54.681Z,34.70
2022-11-30T03:31:54.578Z,34.50
2022-11-30T03:32:54.571Z,35.70
2022-11-30T03:33:54.568Z,35.30
2022-11-30T03:34:54.546Z,35.20
2022-11-30T03:35:54.525Z,34.40
2022-11-30T03:36:54.517Z,34.40
2022-11-30T03:37:54.497Z,35.60
2022-11-30T03:38:54.508Z,35.00
2022-11-30T03:39:58.074Z,34.70
2022-11-30T03:40:54.460Z,34.80
2022-11-30T03:41:54.448Z,35.50
2022-11-30T03:42:54.437Z,35.40
2022-11-30T03:43:54.440Z,36.50
2022-11-30T03:44:54.410Z,36.10
2022-11-30T03:45:54.390Z,36.20
2022-11-30T03:46:54.432Z,35.20
2022-11-30T03:47:54.371Z,36.00
2022-11-30T03:48:54.372Z,37.00
2022-11-30T03:49:55.287Z,37.10
2022-11-30T03:50:54.323Z,36.90
2022-11-30T03:51:54.312Z,38.40
2022-11-30T03:52:54.302Z,38.10
2022-11-30T03:53:54.293Z,38.70
2022-11-30T03:54:54.264Z,38.90
2022-11-30T03:55:54.260Z,38.10
2022-11-30T03:56:54.260Z,39.10
2022-11-30T03:57:54.232Z,39.30
2022-11-30T03:58:54.220Z,40.10
2022-11-30T03:59:55.154Z,41.00
2022-11-30T04:00:54.195Z,40.50
2022-11-30T04:01:54.263Z,40.10
2022-11-30T04:02:54.201Z,38.50
2022-11-30T04:03:54.170Z,40.20
2022-11-30T04:04:54.137Z,38.00
2022-11-30T04:05:54.123Z,39.30
2022-11-30T04:06:54.104Z,37.40
2022-11-30T04:07:54.186Z,38.80
2022-11-30T04:08:54.092Z,39.00
2022-11-30T04:09:54.076Z,40.40
2022-11-30T04:10:54.061Z,39.40
2022-11-30T04:11:54.051Z,39.10
2022-11-30T04:12:54.034Z,41.70
2022-11-30T04:13:54.017Z,39.80
2022-11-30T04:14:53.995Z,39.20
2022-11-30T04:15:54.028Z,38.00
2022-11-30T04:16:53.967Z,40.20
2022-11-30T04:17:53.959Z,39.80
2022-11-30T04:18:53.955Z,39.40
2022-11-30T04:19:53.932Z,39.10
2022-11-30T04:20:53.920Z,38.30
2022-11-30T04:21:53.903Z,39.20
2022-11-30T04:22:53.888Z,42.10
2022-11-30T04:23:53.884Z,38.60
2022-11-30T04:24:53.858Z,41.70
2022-11-30T04:25:53.848Z,39.80
2022-11-30T04:26:53.829Z,40.40
2022-11-30T04:27:53.819Z,39.30
2022-11-30T04:28:53.810Z,39.10
2022-11-30T04:29:53.789Z,38.90
2022-11-30T04:30:53.833Z,38.10
2022-11-30T04:31:53.765Z,40.70
2022-11-30T04:32:54.694Z,38.60
2022-11-30T04:33:53.745Z,39.70
2022-11-30T04:34:53.731Z,40.30
2022-11-30T04:35:53.712Z,39.50
2022-11-30T04:36:57.401Z,38.40
2022-11-30T04:37:54.689Z,39.50
2022-11-30T04:38:53.694Z,39.30
2022-11-30T04:39:53.660Z,39.70
2022-11-30T04:40:53.636Z,37.30
2022-11-30T04:41:53.651Z,40.80
2022-11-30T04:42:53.632Z,39.60
2022-11-30T04:43:53.611Z,40.00
2022-11-30T04:44:53.591Z,39.30
2022-11-30T04:45:53.571Z,38.30
2022-11-30T04:46:53.626Z,38.30
2022-11-30T04:47:53.558Z,37.60
2022-11-30T04:48:53.539Z,38.60
2022-11-30T04:49:53.525Z,38.60
2022-11-30T04:50:53.525Z,40.30
2022-11-30T04:51:53.493Z,39.80
2022-11-30T04:52:53.480Z,38.90
2022-11-30T04:53:53.472Z,38.50
2022-11-30T04:54:53.454Z,39.50
2022-11-30T04:55:53.439Z,38.50
2022-11-30T04:56:53.421Z,37.90
2022-11-30T04:57:53.415Z,38.00
2022-11-30T04:58:53.408Z,39.50
2022-11-30T04:59:53.386Z,38.40
2022-11-30T05:00:53.364Z,38.40
2022-11-30T05:01:53.390Z,37.80
2022-11-30T05:02:53.482Z,38.10
2022-11-30T05:03:53.335Z,37.90
2022-11-30T05:04:53.372Z,37.30
2022-11-30T05:05:53.307Z,37.40
2022-11-30T05:06:53.287Z,37.70
2022-11-30T05:07:53.309Z,36.80
2022-11-30T05:08:53.267Z,39.50
2022-11-30T05:09:53.259Z,38.00
2022-11-30T05:10:53.499Z,38.90
2022-11-30T05:11:53.218Z,38.00
2022-11-30T05:12:53.207Z,37.80
2022-11-30T05:13:53.198Z,38.10
2022-11-30T05:14:53.175Z,38.80
2022-11-30T05:15:53.204Z,37.60
2022-11-30T05:16:53.150Z,37.90
2022-11-30T05:17:53.138Z,37.80
2022-11-30T05:18:53.127Z,38.30
2022-11-30T05:19:53.108Z,38.10
2022-11-30T05:20:53.098Z,39.10
2022-11-30T05:21:53.089Z,38.10
2022-11-30T05:22:53.069Z,38.40
2022-11-30T05:23:53.069Z,40.20
2022-11-30T05:24:53.039Z,39.70
2022-11-30T05:25:53.040Z,39.90
2022-11-30T05:26:53.010Z,37.70
2022-11-30T05:27:53.005Z,38.50
2022-11-30T05:28:53.000Z,38.50
2022-11-30T05:29:52.981Z,39.10
2022-11-30T05:30:52.961Z,37.30
2022-11-30T05:31:53.006Z,38.60
2022-11-30T05:32:52.933Z,38.50
2022-11-30T05:33:52.952Z,36.20
2022-11-30T05:34:54.258Z,38.10
2022-11-30T05:35:52.892Z,36.30
2022-11-30T05:36:52.896Z,37.30
2022-11-30T05:37:52.879Z,36.00
2022-11-30T05:38:52.862Z,37.80
2022-11-30T05:39:52.843Z,37.00
2022-11-30T05:40:52.830Z,35.40
2022-11-30T05:41:54.787Z,36.40
2022-11-30T05:42:53.133Z,38.10
2022-11-30T05:43:52.802Z,35.00
2022-11-30T05:44:52.772Z,35.40
2022-11-30T05:45:53.733Z,35.30
2022-11-30T05:46:52.777Z,36.30
2022-11-30T05:47:52.740Z,35.40
2022-11-30T05:48:52.760Z,35.70
2022-11-30T05:49:52.715Z,35.40
2022-11-30T05:50:52.685Z,35.00
2022-11-30T05:51:52.861Z,36.10
2022-11-30T05:52:52.725Z,36.80
2022-11-30T05:53:52.665Z,36.40
2022-11-30T05:54:52.635Z,37.40
2022-11-30T05:56:01.595Z,35.50
2022-11-30T05:56:59.386Z,35.90
2022-11-30T06:05:08.054Z,35.70
2022-11-30T06:05:15.777Z,36.90
2022-11-30T06:06:12.815Z,37.10
2022-11-30T06:07:12.808Z,36.40
2022-11-30T06:08:12.798Z,38.10
2022-11-30T06:09:12.768Z,37.60
2022-11-30T06:10:12.768Z,37.50
2022-11-30T06:11:13.708Z,37.90
2022-11-30T06:12:12.736Z,37.60
2022-11-30T06:13:12.729Z,36.40
2022-11-30T06:14:12.707Z,37.10
2022-11-30T06:15:12.699Z,38.80
2022-11-30T06:16:14.718Z,38.50
2022-11-30T06:17:12.667Z,39.10
2022-11-30T06:18:12.678Z,40.20
2022-11-30T06:19:12.640Z,38.30
2022-11-30T06:20:12.639Z,40.50
2022-11-30T06:21:13.585Z,40.70
2022-11-30T06:22:12.602Z,40.70
2022-11-30T06:23:12.611Z,40.20
2022-11-30T06:24:12.576Z,39.10
2022-11-30T06:25:12.562Z,39.70
2022-11-30T06:26:12.546Z,40.40
2022-11-30T06:27:12.531Z,40.60
2022-11-30T06:28:12.549Z,41.90
2022-11-30T06:29:12.510Z,41.30
2022-11-30T06:30:12.494Z,40.40
2022-11-30T06:31:12.515Z,39.50
2022-11-30T06:32:12.723Z,40.50
2022-11-30T06:33:12.473Z,41.80
2022-11-30T06:34:12.465Z,40.70
2022-11-30T06:35:12.442Z,40.70
2022-11-30T06:36:12.413Z,40.80
2022-11-30T06:37:12.637Z,40.90
2022-11-30T06:38:12.404Z,46.40
2022-11-30T06:39:12.372Z,47.40
2022-11-30T06:40:12.367Z,47.00
2022-11-30T06:41:12.347Z,46.70
2022-11-30T06:42:12.335Z,49.70
2022-11-30T06:43:12.331Z,43.10
2022-11-30T06:44:12.305Z,44.90
2022-11-30T06:45:12.293Z,44.50
2022-11-30T06:46:12.372Z,45.40
2022-11-30T06:47:12.275Z,45.30
2022-11-30T06:48:12.265Z,45.10
2022-11-30T06:49:12.314Z,45.60
2022-11-30T06:50:12.239Z,45.10
2022-11-30T06:51:12.218Z,46.10
2022-11-30T06:52:12.209Z,46.60
2022-11-30T06:53:12.188Z,46.00
2022-11-30T06:54:12.187Z,45.10
2022-11-30T06:55:12.171Z,47.40
2022-11-30T06:56:12.151Z,45.10
2022-11-30T06:57:12.160Z,45.20
2022-11-30T06:58:12.178Z,45.80
2022-11-30T06:59:12.150Z,44.10
2022-11-30T07:00:12.360Z,46.20
2022-11-30T07:01:12.137Z,44.00
2022-11-30T07:02:17.494Z,43.10
2022-11-30T07:03:13.058Z,44.10
2022-11-30T07:04:12.081Z,43.80
2022-11-30T07:05:12.040Z,44.80
2022-11-30T07:06:12.079Z,46.90
2022-11-30T07:07:12.030Z,44.30
2022-11-30T07:08:11.990Z,45.20
2022-11-30T07:09:11.969Z,46.60
2022-11-30T07:10:15.870Z,46.00
2022-11-30T07:11:12.950Z,44.30
2022-11-30T07:12:11.930Z,46.50
2022-11-30T07:13:11.950Z,44.40
2022-11-30T07:14:11.909Z,45.60
2022-11-30T07:15:11.891Z,47.10
2022-11-30T07:16:11.929Z,46.60
2022-11-30T07:17:11.865Z,48.70
2022-11-30T07:18:11.860Z,47.60
2022-11-30T07:19:11.832Z,49.20
2022-11-30T07:20:11.824Z,45.70
2022-11-30T07:21:11.812Z,47.30
2022-11-30T07:22:11.810Z,44.90
2022-11-30T07:23:11.801Z,46.50
2022-11-30T07:24:11.778Z,45.20
2022-11-30T07:25:11.749Z,46.10
2022-11-30T07:26:11.743Z,47.00
2022-11-30T07:27:11.724Z,47.20
2022-11-30T07:28:11.721Z,48.80
2022-11-30T07:29:11.702Z,48.70
2022-11-30T07:30:11.691Z,48.10
2022-11-30T07:31:16.002Z,50.20
2022-11-30T07:32:11.726Z,51.20
2022-11-30T07:33:11.655Z,51.70
2022-11-30T07:34:11.635Z,51.80
2022-11-30T07:35:11.622Z,51.50
2022-11-30T07:36:11.850Z,54.00
2022-11-30T07:37:11.595Z,52.40
2022-11-30T07:38:11.587Z,53.00
2022-11-30T07:39:11.567Z,53.40
2022-11-30T07:40:11.785Z,51.80
2022-11-30T07:41:11.533Z,52.40
2022-11-30T07:42:11.525Z,57.60
2022-11-30T07:43:11.537Z,53.90
2022-11-30T07:44:11.501Z,54.00
2022-11-30T07:45:11.476Z,56.40
2022-11-30T07:46:11.524Z,56.50
2022-11-30T07:47:11.494Z,57.40
2022-11-30T07:48:11.456Z,57.20
2022-11-30T07:49:12.383Z,59.20
2022-11-30T07:50:11.419Z,59.60
2022-11-30T07:51:11.418Z,56.50
2022-11-30T07:52:11.439Z,58.60
2022-11-30T07:53:11.408Z,56.10
2022-11-30T07:54:11.381Z,56.90
2022-11-30T07:55:11.350Z,56.50
2022-11-30T07:56:11.339Z,56.30
2022-11-30T07:57:11.322Z,57.60
2022-11-30T07:58:15.832Z,57.30
2022-11-30T07:59:12.301Z,56.50
2022-11-30T08:00:11.277Z,57.30
2022-11-30T08:01:11.379Z,56.50
2022-11-30T08:02:11.387Z,54.80
2022-11-30T08:03:11.252Z,56.90
2022-11-30T08:04:11.268Z,58.90
2022-11-30T08:05:11.211Z,55.60
2022-11-30T08:06:11.198Z,57.00
2022-11-30T08:07:11.179Z,56.30
2022-11-30T08:08:11.179Z,56.00
2022-11-30T08:09:11.162Z,57.80
2022-11-30T08:10:11.148Z,56.30
2022-11-30T08:11:11.130Z,56.30
2022-11-30T08:12:11.117Z,56.20
2022-11-30T08:13:11.114Z,54.50
2022-11-30T08:14:11.089Z,57.50
2022-11-30T08:15:19.951Z,54.90
2022-11-30T08:16:12.106Z,56.80
2022-11-30T08:17:11.043Z,56.30
2022-11-30T08:18:11.064Z,57.30
2022-11-30T08:19:11.032Z,56.60
2022-11-30T08:20:11.004Z,54.60
2022-11-30T08:21:11.007Z,55.00
2022-11-30T08:22:10.977Z,57.30
2022-11-30T08:23:10.994Z,56.80
2022-11-30T08:24:11.015Z,59.30
2022-11-30T08:25:10.977Z,56.90
2022-11-30T08:26:10.955Z,57.20
2022-11-30T08:27:10.924Z,57.40
2022-11-30T08:28:10.903Z,57.60
2022-11-30T08:29:10.886Z,59.10
2022-11-30T08:30:10.870Z,59.30
2022-11-30T08:31:10.913Z,58.20
2022-11-30T08:32:10.853Z,59.80
2022-11-30T08:33:10.867Z,61.00
2022-11-30T08:34:10.838Z,59.10
2022-11-30T08:35:11.040Z,60.00
2022-11-30T08:36:10.787Z,58.20
2022-11-30T08:37:11.728Z,57.60
2022-11-30T08:38:10.799Z,59.10
2022-11-30T08:39:10.794Z,58.70
2022-11-30T08:40:10.740Z,59.20
2022-11-30T08:41:10.741Z,60.30
2022-11-30T08:42:10.740Z,58.90
2022-11-30T08:43:10.703Z,58.80
2022-11-30T08:44:10.678Z,61.10
2022-11-30T08:45:10.677Z,58.00
2022-11-30T08:46:34.656Z,59.00
2022-11-30T08:47:11.713Z,59.40
2022-11-30T08:48:10.646Z,57.10
2022-11-30T08:49:25.805Z,58.10
2022-11-30T08:50:11.598Z,58.60
2022-11-30T08:51:10.601Z,57.50
2022-11-30T08:52:18.626Z,58.70
2022-11-30T08:53:11.581Z,57.80
2022-11-30T08:54:10.542Z,58.90
2022-11-30T08:55:10.537Z,58.30
2022-11-30T08:56:10.520Z,59.70
2022-11-30T08:57:10.518Z,58.50
2022-11-30T08:58:10.522Z,60.10
2022-11-30T08:59:10.485Z,57.50
2022-11-30T09:00:10.463Z,59.60
2022-11-30T09:01:10.455Z,61.20
2022-11-30T09:02:10.540Z,61.20
2022-11-30T09:03:10.451Z,59.50
2022-11-30T09:04:10.422Z,60.20
2022-11-30T09:05:10.801Z,60.50
2022-11-30T09:06:10.439Z,60.00
2022-11-30T09:07:10.374Z,59.10
2022-11-30T09:08:10.389Z,59.20
2022-11-30T09:09:10.346Z,61.40
2022-11-30T09:10:10.331Z,57.60
2022-11-30T09:11:10.327Z,58.00
2022-11-30T09:12:10.300Z,59.80
2022-11-30T09:13:10.486Z,57.50
2022-11-30T09:14:10.277Z,57.30
2022-11-30T09:15:10.279Z,58.00
2022-11-30T09:16:10.283Z,59.00
2022-11-30T09:17:10.248Z,59.10
2022-11-30T09:18:10.226Z,58.60
2022-11-30T09:19:10.207Z,56.70
2022-11-30T09:20:10.233Z,57.40
2022-11-30T09:21:11.153Z,56.80
2022-11-30T09:22:10.191Z,58.40
2022-11-30T09:23:10.175Z,56.60
2022-11-30T09:24:10.148Z,58.10
2022-11-30T09:25:10.137Z,57.90
2022-11-30T09:26:10.154Z,57.10
2022-11-30T09:27:10.111Z,55.40
2022-11-30T09:28:12.445Z,56.00
2022-11-30T09:29:10.096Z,56.90
2022-11-30T09:30:10.067Z,56.90
2022-11-30T09:31:10.084Z,56.40
2022-11-30T09:32:10.032Z,56.80
2022-11-30T09:33:10.053Z,55.80
2022-11-30T09:34:10.010Z,54.80
2022-11-30T09:35:12.782Z,56.40
2022-11-30T09:36:10.771Z,55.80
2022-11-30T09:37:09.971Z,56.00
2022-11-30T09:38:09.974Z,57.20
2022-11-30T09:39:09.944Z,55.20
2022-11-30T09:40:09.921Z,56.80
2022-11-30T09:41:09.911Z,57.20
2022-11-30T09:42:09.895Z,58.00
2022-11-30T09:43:09.902Z,57.60
2022-11-30T09:44:09.890Z,57.40
2022-11-30T09:45:09.865Z,56.30
2022-11-30T09:46:09.909Z,56.10
2022-11-30T09:47:09.834Z,53.50
2022-11-30T09:48:09.824Z,55.00
2022-11-30T09:49:09.827Z,55.70
2022-11-30T09:50:09.793Z,54.20
2022-11-30T09:51:09.791Z,55.10
2022-11-30T09:52:09.772Z,56.60
2022-11-30T09:53:09.775Z,56.10
2022-11-30T09:54:09.738Z,55.50
2022-11-30T09:55:09.731Z,54.70
2022-11-30T09:56:09.715Z,54.50
2022-11-30T09:57:09.702Z,55.10
2022-11-30T09:58:09.696Z,54.60
2022-11-30T09:59:09.676Z,55.00
2022-11-30T10:00:09.661Z,53.60
2022-11-30T10:01:09.974Z,54.60
2022-11-30T10:02:09.707Z,54.20
2022-11-30T10:03:09.692Z,55.90
2022-11-30T10:04:09.607Z,56.60
2022-11-30T10:05:09.597Z,53.60
2022-11-30T10:06:09.579Z,55.10
2022-11-30T10:07:09.573Z,55.10
2022-11-30T10:08:09.601Z,52.30
2022-11-30T10:09:09.560Z,55.20
2022-11-30T10:10:30.927Z,54.20
2022-11-30T10:11:12.386Z,54.90
2022-11-30T10:12:09.504Z,55.00
2022-11-30T10:13:09.499Z,54.40
2022-11-30T10:14:09.469Z,52.10
2022-11-30T10:15:09.462Z,53.20
2022-11-30T10:16:09.770Z,52.30
2022-11-30T10:17:09.454Z,52.60
2022-11-30T10:18:09.430Z,53.10
2022-11-30T10:19:09.411Z,52.60
2022-11-30T10:20:10.353Z,52.30
2022-11-30T10:21:09.649Z,52.80
2022-11-30T10:22:09.674Z,53.80
2022-11-30T10:23:09.372Z,53.90
2022-11-30T10:24:09.389Z,51.00
2022-11-30T10:25:12.008Z,51.20
2022-11-30T10:26:09.325Z,51.10
2022-11-30T10:27:10.269Z,52.80
2022-11-30T10:28:38.488Z,52.10
2022-11-30T10:29:10.284Z,51.60
2022-11-30T10:30:09.264Z,52.20
2022-11-30T10:31:09.319Z,51.10
2022-11-30T10:32:09.263Z,52.10
2022-11-30T10:33:09.232Z,51.00
2022-11-30T10:34:09.235Z,51.60
2022-11-30T10:35:09.208Z,51.90
2022-11-30T10:36:09.196Z,50.80
2022-11-30T10:37:09.198Z,50.40
2022-11-30T10:38:09.195Z,51.10
2022-11-30T10:39:14.173Z,53.30
2022-11-30T10:40:10.162Z,49.10
2022-11-30T10:41:09.121Z,50.10
2022-11-30T10:42:09.107Z,51.20
2022-11-30T10:43:09.096Z,49.70
2022-11-30T10:44:09.087Z,49.70
2022-11-30T10:45:09.097Z,49.70
2022-11-30T10:46:13.996Z,51.90
2022-11-30T10:47:10.045Z,49.00
2022-11-30T10:48:09.040Z,49.90
2022-11-30T10:49:09.028Z,50.20
2022-11-30T10:50:09.022Z,50.80
2022-11-30T10:51:08.985Z,50.30
2022-11-30T10:52:08.999Z,48.60
2022-11-30T10:53:08.960Z,47.10
2022-11-30T10:54:08.959Z,47.90
2022-11-30T10:55:08.971Z,49.00
2022-11-30T10:56:08.939Z,50.20
2022-11-30T10:57:08.921Z,49.60
2022-11-30T10:58:08.894Z,49.60
2022-11-30T10:59:08.903Z,50.20
2022-11-30T11:00:08.891Z,49.80
2022-11-30T11:01:08.907Z,50.80
2022-11-30T11:02:08.880Z,49.70
2022-11-30T11:03:08.883Z,48.20
2022-11-30T11:04:08.942Z,49.80
2022-11-30T11:05:08.804Z,49.00
2022-11-30T11:06:09.741Z,50.20
2022-11-30T11:07:08.874Z,48.90
2022-11-30T11:08:08.790Z,48.00
2022-11-30T11:09:08.761Z,47.10
2022-11-30T11:10:09.683Z,48.70
2022-11-30T11:11:08.718Z,48.40
2022-11-30T11:12:08.732Z,50.90
2022-11-30T11:13:08.693Z,51.80
2022-11-30T11:14:08.684Z,50.50
2022-11-30T11:15:08.665Z,50.20
2022-11-30T11:16:09.625Z,52.10
2022-11-30T11:17:08.644Z,50.60
2022-11-30T11:18:08.624Z,51.40
2022-11-30T11:19:08.621Z,51.70
2022-11-30T11:20:08.615Z,50.40
2022-11-30T11:21:08.602Z,53.00
2022-11-30T11:22:08.578Z,49.70
2022-11-30T11:23:08.563Z,52.20
2022-11-30T11:24:08.557Z,50.70
2022-11-30T11:25:08.529Z,51.50
2022-11-30T11:26:08.517Z,51.50
2022-11-30T11:27:09.467Z,50.30
2022-11-30T11:28:08.490Z,50.80
2022-11-30T11:29:08.506Z,50.10
2022-11-30T11:30:08.483Z,49.50
2022-11-30T11:31:08.711Z,49.90
2022-11-30T11:32:08.463Z,48.80
2022-11-30T11:33:08.429Z,48.00
2022-11-30T11:34:08.429Z,47.70
2022-11-30T11:35:08.405Z,45.20
2022-11-30T11:36:08.379Z,43.00
2022-11-30T11:37:08.378Z,45.30
2022-11-30T11:38:08.350Z,44.10
2022-11-30T11:39:08.370Z,45.00
2022-11-30T11:40:08.334Z,44.90
2022-11-30T11:41:08.319Z,44.60
2022-11-30T11:42:08.320Z,44.90
2022-11-30T11:43:08.292Z,43.30
2022-11-30T11:44:08.300Z,43.40
2022-11-30T11:45:08.280Z,40.40
2022-11-30T11:46:08.285Z,41.80
2022-11-30T11:47:08.267Z,44.70
2022-11-30T11:48:08.226Z,42.10
2022-11-30T11:49:08.223Z,41.30
2022-11-30T11:50:08.198Z,40.50
2022-11-30T11:51:08.661Z,40.90
2022-11-30T11:52:08.163Z,44.20
2022-11-30T11:53:08.358Z,46.10
2022-11-30T11:54:08.260Z,46.70
2022-11-30T11:55:08.164Z,46.20
2022-11-30T11:56:08.114Z,46.30
2022-11-30T11:57:08.120Z,45.30
2022-11-30T11:58:08.095Z,45.90
2022-11-30T11:59:08.084Z,46.90
2022-11-30T12:00:15.667Z,45.90
2022-11-30T12:01:38.098Z,46.80
2022-11-30T12:02:09.045Z,45.40
2022-11-30T12:03:08.057Z,45.50
2022-11-30T12:04:08.065Z,44.00
2022-11-30T12:05:08.006Z,45.70
2022-11-30T12:06:07.976Z,44.40
2022-11-30T12:07:07.967Z,43.20
2022-11-30T12:08:08.978Z,44.20
2022-11-30T12:09:07.964Z,42.40
2022-11-30T12:10:28.233Z,40.90
2022-11-30T12:11:08.927Z,43.00
2022-11-30T12:12:07.905Z,41.80
2022-11-30T12:13:07.907Z,40.90
2022-11-30T12:14:07.900Z,39.90
2022-11-30T12:15:07.870Z,42.20
2022-11-30T12:16:07.874Z,40.70
2022-11-30T12:17:07.838Z,40.60
2022-11-30T12:18:14.182Z,39.90
2022-11-30T12:19:08.831Z,40.00
2022-11-30T12:20:07.798Z,39.10
2022-11-30T12:21:07.793Z,38.90
2022-11-30T12:22:07.768Z,39.60
2022-11-30T12:23:07.915Z,40.30
2022-11-30T12:24:07.749Z,39.80
2022-11-30T12:25:07.732Z,40.40
2022-11-30T12:26:07.709Z,38.10
2022-11-30T12:27:07.708Z,38.10
2022-11-30T12:28:07.701Z,38.30
2022-11-30T12:29:07.738Z,38.80
2022-11-30T12:30:07.662Z,37.30
2022-11-30T12:31:07.710Z,38.40
2022-11-30T12:32:07.639Z,38.10
2022-11-30T12:33:07.612Z,37.80
2022-11-30T12:34:07.633Z,38.00
2022-11-30T12:35:07.838Z,36.70
2022-11-30T12:36:07.597Z,37.10
2022-11-30T12:37:07.567Z,35.90
2022-11-30T12:38:07.562Z,36.90
2022-11-30T12:39:07.552Z,36.70
2022-11-30T12:40:07.551Z,38.20
2022-11-30T12:41:07.515Z,36.70
2022-11-30T12:42:07.536Z,37.20
2022-11-30T12:43:07.501Z,36.50
2022-11-30T12:44:07.498Z,38.20
2022-11-30T12:45:07.472Z,36.50
2022-11-30T12:46:07.526Z,34.70
2022-11-30T12:47:07.433Z,36.30
2022-11-30T12:48:07.425Z,35.90
2022-11-30T12:49:07.716Z,38.30
2022-11-30T12:50:07.548Z,38.40
2022-11-30T12:51:07.387Z,37.70
2022-11-30T12:52:07.372Z,36.70
2022-11-30T12:53:07.365Z,34.90
2022-11-30T12:54:07.357Z,35.80
2022-11-30T12:55:07.323Z,34.10
2022-11-30T12:56:07.329Z,33.30
2022-11-30T12:57:07.300Z,34.30
2022-11-30T12:58:07.327Z,33.30
2022-11-30T12:59:07.292Z,32.70